createdAt,value
2018-09-19T00:00:18.288Z,19.38
2018-09-19T00:02:47.141Z,19.37
2018-09-19T00:05:15.726Z,19.28
2018-09-19T00:07:44.386Z,19.21
2018-09-19T00:10:13.232Z,19.15
2018-09-19T00:12:41.894Z,19.17
2018-09-19T00:15:10.796Z,19.07
2018-09-19T00:17:40.147Z,19.01
2018-09-19T00:20:08.425Z,18.99
2018-09-19T00:22:37.736Z,19.05
2018-09-19T00:25:06.322Z,18.92
2018-09-19T00:27:34.600Z,18.86
2018-09-19T00:30:02.909Z,18.85
2018-09-19T00:32:31.283Z,18.84
2018-09-19T00:34:59.487Z,18.96
2018-09-19T00:37:28.420Z,18.92
2018-09-19T00:39:56.887Z,19.07
2018-09-19T00:42:25.103Z,19.23
2018-09-19T00:44:53.340Z,19.40
2018-09-19T00:47:21.829Z,19.37
2018-09-19T00:49:50.639Z,19.37
2018-09-19T00:52:18.867Z,19.55
2018-09-19T00:54:47.198Z,19.72
2018-09-19T00:57:15.517Z,19.52
2018-09-19T00:59:43.753Z,19.38
2018-09-19T01:02:11.966Z,19.28
2018-09-19T01:04:41.037Z,19.17
2018-09-19T01:07:09.356Z,19.09
2018-09-19T01:09:38.212Z,19.02
2018-09-19T01:12:06.538Z,18.92
2018-09-19T01:14:34.786Z,18.90
2018-09-19T01:17:03.040Z,18.91
2018-09-19T01:19:31.462Z,18.89
2018-09-19T01:21:59.825Z,18.86
2018-09-19T01:24:28.381Z,18.77
2018-09-19T01:27:04.797Z,18.70
2018-09-19T01:29:33.642Z,18.65
2018-09-19T01:32:02.377Z,18.59
2018-09-19T01:34:30.711Z,18.56
2018-09-19T01:37:02.602Z,18.56
2018-09-19T01:39:32.732Z,18.56
2018-09-19T01:42:01.066Z,18.52
2018-09-19T01:44:29.447Z,18.53
2018-09-19T01:46:58.315Z,18.59
2018-09-19T01:49:26.824Z,18.67
2018-09-19T01:51:55.501Z,18.78
2018-09-19T01:54:24.857Z,18.96
2018-09-19T01:56:54.024Z,19.14
2018-09-19T01:59:22.402Z,19.12
2018-09-19T02:01:51.162Z,19.02
2018-09-19T02:04:20.345Z,18.99
2018-09-19T02:06:49.033Z,18.81
2018-09-19T02:09:17.572Z,18.64
2018-09-19T02:11:46.530Z,18.49
2018-09-19T02:14:14.773Z,18.35
2018-09-19T02:16:43.392Z,18.29
2018-09-19T02:19:12.042Z,18.14
2018-09-19T02:21:40.384Z,18.13
2018-09-19T02:24:08.633Z,18.11
2018-09-19T02:26:37.029Z,18.16
2018-09-19T02:29:05.516Z,18.14
2018-09-19T02:31:34.128Z,18.09
2018-09-19T02:34:02.484Z,18.08
2018-09-19T02:36:30.832Z,18.06
2018-09-19T02:38:59.340Z,18.10
2018-09-19T02:41:28.330Z,18.15
2018-09-19T02:43:56.659Z,18.12
2018-09-19T02:46:24.937Z,18.03
2018-09-19T02:48:53.207Z,18.01
2018-09-19T02:51:22.098Z,17.96
2018-09-19T02:53:50.888Z,17.89
2018-09-19T02:56:19.169Z,17.87
2018-09-19T02:58:47.476Z,17.84
2018-09-19T03:01:15.791Z,17.81
2018-09-19T03:03:44.031Z,17.77
2018-09-19T03:06:13.096Z,17.71
2018-09-19T03:08:41.778Z,17.64
2018-09-19T03:11:10.191Z,17.63
2018-09-19T03:13:38.666Z,17.53
2018-09-19T03:16:08.048Z,17.54
2018-09-19T03:18:37.008Z,17.45
2018-09-19T03:21:05.992Z,17.45
2018-09-19T03:23:34.215Z,17.37
2018-09-19T03:26:02.492Z,17.41
2018-09-19T03:28:30.741Z,17.37
2018-09-19T03:30:58.999Z,17.36
2018-09-19T03:33:27.210Z,17.35
2018-09-19T03:35:55.520Z,17.27
2018-09-19T03:38:23.773Z,17.22
2018-09-19T03:40:52.354Z,17.17
2018-09-19T03:43:20.988Z,17.16
2018-09-19T03:45:50.239Z,17.16
2018-09-19T03:48:19.072Z,17.13
2018-09-19T03:50:47.614Z,17.12
2018-09-19T03:53:15.973Z,17.08
2018-09-19T03:55:44.398Z,17.05
2018-09-19T03:58:12.725Z,17.04
2018-09-19T04:00:41.992Z,16.99
2018-09-19T04:03:10.250Z,16.94
2018-09-19T04:05:39.176Z,16.95
2018-09-19T04:08:07.822Z,16.88
2018-09-19T04:10:36.745Z,16.80
2018-09-19T04:13:05.132Z,16.78
2018-09-19T04:15:33.802Z,16.85
2018-09-19T04:18:02.697Z,16.81
2018-09-19T04:20:31.241Z,16.85
2018-09-19T04:23:00.193Z,16.74
2018-09-19T04:25:29.368Z,16.73
2018-09-19T04:27:57.663Z,16.63
2018-09-19T04:30:25.905Z,16.59
2018-09-19T04:32:54.398Z,16.69
2018-09-19T04:35:23.909Z,16.62
2018-09-19T04:37:52.162Z,16.52
2018-09-19T04:40:20.442Z,16.56
2018-09-19T04:42:49.267Z,16.50
2018-09-19T04:45:17.699Z,16.51
2018-09-19T04:47:45.850Z,16.51
2018-09-19T04:50:15.087Z,16.46
2018-09-19T04:52:43.588Z,16.45
2018-09-19T04:55:12.148Z,16.43
2018-09-19T04:57:41.091Z,16.47
2018-09-19T05:00:09.901Z,16.50
2018-09-19T05:02:38.345Z,16.45
2018-09-19T05:05:07.105Z,16.52
2018-09-19T05:07:35.327Z,16.49
2018-09-19T05:10:03.681Z,16.43
2018-09-19T05:12:32.078Z,16.43
2018-09-19T05:15:00.364Z,16.46
2018-09-19T05:17:28.612Z,16.49
2018-09-19T05:19:57.101Z,16.46
2018-09-19T05:22:26.489Z,16.48
2018-09-19T05:24:54.757Z,16.48
2018-09-19T05:27:23.341Z,16.52
2018-09-19T05:29:51.769Z,16.54
2018-09-19T05:32:20.238Z,16.59
2018-09-19T05:34:48.837Z,16.63
2018-09-19T05:37:18.396Z,16.72
2018-09-19T05:39:47.235Z,16.79
2018-09-19T05:42:16.103Z,16.85
2018-09-19T05:44:44.520Z,16.91
2018-09-19T05:47:12.856Z,16.93
2018-09-19T05:49:41.307Z,17.03
2018-09-19T05:52:09.551Z,17.11
2018-09-19T05:54:37.893Z,17.20
2018-09-19T05:57:06.412Z,17.33
2018-09-19T05:59:34.764Z,17.41
2018-09-19T06:02:04.354Z,17.49
2018-09-19T06:04:32.636Z,17.60
2018-09-19T06:07:01.016Z,17.74
2018-09-19T06:09:29.266Z,17.80
2018-09-19T06:11:58.180Z,17.88
2018-09-19T06:14:26.664Z,17.92
2018-09-19T06:16:54.941Z,18.04
2018-09-19T06:19:23.903Z,18.19
2018-09-19T06:21:52.418Z,18.26
2018-09-19T06:24:21.108Z,18.47
2018-09-19T06:26:49.342Z,18.54
2018-09-19T06:29:18.014Z,18.50
2018-09-19T06:31:46.284Z,18.70
2018-09-19T06:34:14.802Z,18.82
2018-09-19T06:36:43.084Z,18.88
2018-09-19T06:39:11.602Z,18.88
2018-09-19T06:41:39.912Z,18.91
2018-09-19T06:44:09.108Z,19.26
2018-09-19T06:46:37.605Z,19.41
2018-09-19T06:49:06.561Z,19.41
2018-09-19T06:51:34.827Z,19.60
2018-09-19T06:54:03.716Z,19.76
2018-09-19T06:56:32.177Z,19.98
2018-09-19T06:59:00.375Z,20.01
2018-09-19T07:01:28.751Z,20.11
2018-09-19T07:03:57.033Z,20.21
2018-09-19T07:06:25.286Z,20.21
2018-09-19T07:08:53.547Z,20.31
2018-09-19T07:11:22.668Z,20.39
2018-09-19T07:13:51.269Z,20.54
2018-09-19T07:16:20.321Z,20.67
2018-09-19T07:18:48.672Z,20.70
2018-09-19T07:21:17.204Z,20.83
2018-09-19T07:23:45.431Z,20.84
2018-09-19T07:26:13.843Z,20.93
2018-09-19T07:28:42.347Z,20.95
2018-09-19T07:31:10.591Z,21.12
2018-09-19T07:33:39.356Z,21.23
2018-09-19T07:36:07.602Z,21.17
2018-09-19T07:38:36.173Z,21.39
2018-09-19T07:41:04.596Z,21.58
2018-09-19T07:43:34.108Z,21.63
2018-09-19T07:46:02.304Z,21.85
2018-09-19T07:48:30.626Z,21.90
2018-09-19T07:50:59.273Z,21.92
2018-09-19T07:53:35.344Z,21.97
2018-09-19T07:56:04.785Z,21.91
2018-09-19T07:58:34.475Z,22.04
2018-09-19T08:01:02.736Z,22.32
2018-09-19T08:03:32.160Z,22.43
2018-09-19T08:06:00.862Z,22.37
2018-09-19T08:08:29.688Z,22.54
2018-09-19T08:10:58.043Z,22.44
2018-09-19T08:13:27.489Z,22.38
2018-09-19T08:15:56.512Z,22.59
2018-09-19T08:18:24.790Z,22.77
2018-09-19T08:20:53.417Z,23.01
2018-09-19T08:23:21.688Z,23.13
2018-09-19T08:25:50.626Z,23.40
2018-09-19T08:28:19.112Z,23.21
2018-09-19T08:30:47.706Z,23.30
2018-09-19T08:33:16.050Z,23.47
2018-09-19T08:35:44.587Z,23.54
2018-09-19T08:38:13.244Z,23.34
2018-09-19T08:40:41.731Z,23.62
2018-09-19T08:43:10.490Z,23.87
2018-09-19T08:45:39.766Z,24.22
2018-09-19T08:48:08.061Z,24.43
2018-09-19T08:50:37.216Z,24.20
2018-09-19T08:53:06.326Z,24.15
2018-09-19T08:55:34.544Z,24.40
2018-09-19T08:58:02.918Z,24.43
2018-09-19T09:00:31.231Z,24.65
2018-09-19T09:02:59.604Z,24.93
2018-09-19T09:05:28.644Z,25.07
2018-09-19T09:07:57.125Z,25.07
2018-09-19T09:10:26.525Z,25.14
2018-09-19T09:12:56.706Z,25.15
2018-09-19T09:15:25.942Z,25.28
2018-09-19T09:17:55.396Z,25.50
2018-09-19T09:20:24.210Z,25.66
2018-09-19T09:22:54.255Z,25.88
2018-09-19T09:25:22.480Z,26.15
2018-09-19T09:27:50.818Z,26.24
2018-09-19T09:30:19.229Z,26.11
2018-09-19T09:32:47.997Z,26.10
2018-09-19T09:35:16.273Z,26.20
2018-09-19T09:37:44.682Z,26.39
2018-09-19T09:40:13.171Z,26.78
2018-09-19T09:42:42.950Z,27.13
2018-09-19T09:45:11.204Z,27.35
2018-09-19T09:47:39.880Z,27.42
2018-09-19T09:50:10.103Z,27.46
2018-09-19T09:52:38.664Z,27.57
2018-09-19T09:55:06.956Z,27.65
2018-09-19T09:57:35.198Z,27.94
2018-09-19T10:00:03.560Z,28.24
2018-09-19T10:02:32.624Z,28.13
2018-09-19T10:05:00.854Z,28.15
2018-09-19T10:07:29.095Z,28.32
2018-09-19T10:09:58.355Z,28.44
2018-09-19T10:12:26.593Z,28.39
2018-09-19T10:14:55.466Z,28.71
2018-09-19T10:17:24.000Z,28.63
2018-09-19T10:19:52.228Z,28.65
2018-09-19T10:22:20.912Z,28.66
2018-09-19T10:24:49.125Z,28.84
2018-09-19T10:27:17.500Z,29.09
2018-09-19T10:29:46.128Z,29.21
2018-09-19T10:32:14.609Z,29.54
2018-09-19T10:34:42.885Z,29.40
2018-09-19T10:37:11.614Z,29.58
2018-09-19T10:39:39.864Z,29.44
2018-09-19T10:42:08.518Z,29.48
2018-09-19T10:44:36.720Z,29.57
2018-09-19T10:47:05.898Z,29.89
2018-09-19T10:52:07.336Z,29.85
2018-09-19T10:54:35.655Z,29.83
2018-09-19T10:57:06.078Z,30.33
2018-09-19T10:59:34.557Z,29.81
2018-09-19T11:02:04.367Z,30.09
2018-09-19T11:04:33.283Z,30.39
2018-09-19T11:07:02.810Z,30.50
2018-09-19T11:09:32.175Z,30.95
2018-09-19T11:12:01.283Z,30.77
2018-09-19T11:14:30.092Z,30.87
2018-09-19T11:16:58.486Z,30.94
2018-09-19T11:19:27.102Z,31.49
2018-09-19T11:21:55.343Z,31.06
2018-09-19T11:24:25.078Z,31.45
2018-09-19T11:26:55.269Z,31.96
2018-09-19T11:29:25.792Z,32.03
2018-09-19T11:31:56.002Z,31.76
2018-09-19T11:34:24.412Z,31.41
2018-09-19T11:36:52.761Z,31.52
2018-09-19T11:39:21.050Z,31.53
2018-09-19T11:41:49.393Z,31.51
2018-09-19T11:44:18.511Z,31.84
2018-09-19T11:46:46.687Z,31.50
2018-09-19T11:49:15.197Z,31.96
2018-09-19T11:51:43.843Z,31.61
2018-09-19T11:54:12.739Z,31.23
2018-09-19T11:56:41.366Z,31.40
2018-09-19T11:59:09.644Z,32.23
2018-09-19T12:01:43.782Z,32.16
2018-09-19T12:04:12.106Z,32.17
2018-09-19T12:06:40.480Z,32.51
2018-09-19T12:09:11.310Z,32.70
2018-09-19T12:11:39.658Z,32.03
2018-09-19T12:14:08.037Z,32.25
2018-09-19T12:16:37.544Z,32.23
2018-09-19T12:19:07.091Z,32.74
2018-09-19T12:21:35.700Z,32.91
2018-09-19T12:24:04.902Z,32.92
2018-09-19T12:26:33.421Z,32.96
2018-09-19T12:29:02.487Z,33.16
2018-09-19T12:31:31.115Z,32.70
2018-09-19T12:33:59.644Z,32.60
2018-09-19T12:36:28.574Z,33.07
2018-09-19T12:38:56.790Z,33.56
2018-09-19T12:41:25.027Z,33.02
2018-09-19T12:43:53.525Z,33.10
2018-09-19T12:46:22.452Z,33.23
2018-09-19T12:48:57.866Z,32.84
2018-09-19T12:51:26.176Z,33.24
2018-09-19T12:53:54.436Z,33.67
2018-09-19T12:56:22.808Z,34.16
2018-09-19T12:58:51.096Z,33.99
2018-09-19T13:01:20.184Z,33.70
2018-09-19T13:03:48.472Z,33.79
2018-09-19T13:06:16.695Z,34.16
2018-09-19T13:08:44.942Z,33.84
2018-09-19T13:11:13.772Z,33.89
2018-09-19T13:13:42.808Z,35.44
2018-09-19T13:16:11.128Z,36.23
2018-09-19T13:18:39.436Z,37.55
2018-09-19T13:21:08.146Z,38.08
2018-09-19T13:23:36.398Z,39.67
2018-09-19T13:26:04.816Z,39.57
2018-09-19T13:28:33.310Z,40.05
2018-09-19T13:31:01.880Z,41.20
2018-09-19T13:33:30.204Z,40.81
2018-09-19T13:35:58.726Z,41.67
2018-09-19T13:38:27.046Z,40.09
2018-09-19T13:40:55.375Z,39.93
2018-09-19T13:43:23.926Z,41.21
2018-09-19T13:45:52.418Z,41.21
2018-09-19T13:48:20.941Z,40.27
2018-09-19T13:51:01.425Z,40.87
2018-09-19T13:53:29.730Z,40.60
2018-09-19T13:55:58.006Z,41.93
2018-09-19T13:58:26.608Z,40.77
2018-09-19T14:00:55.067Z,42.49
2018-09-19T14:03:23.596Z,42.61
2018-09-19T14:05:51.865Z,42.52
2018-09-19T14:08:21.737Z,42.43
2018-09-19T14:10:51.439Z,41.60
2018-09-19T14:13:19.980Z,42.10
2018-09-19T14:15:48.523Z,42.90
2018-09-19T14:18:16.770Z,41.93
2018-09-19T14:20:45.528Z,41.17
2018-09-19T14:23:13.755Z,40.17
2018-09-19T14:25:42.055Z,42.69
2018-09-19T14:28:10.568Z,44.48
2018-09-19T14:30:38.991Z,44.54
2018-09-19T14:33:07.502Z,42.55
2018-09-19T14:35:35.759Z,43.31
2018-09-19T14:38:05.144Z,42.49
2018-09-19T14:40:33.311Z,43.31
2018-09-19T14:43:01.828Z,42.42
2018-09-19T14:45:30.297Z,42.41
2018-09-19T14:47:58.569Z,41.43
2018-09-19T14:50:26.870Z,40.90
2018-09-19T14:52:55.376Z,41.97
2018-09-19T14:55:23.624Z,42.79
2018-09-19T14:57:52.151Z,43.66
2018-09-19T15:00:21.334Z,44.49
2018-09-19T15:02:49.830Z,44.03
2018-09-19T15:05:18.130Z,45.50
2018-09-19T15:07:47.000Z,45.58
2018-09-19T15:10:16.206Z,45.44
2018-09-19T15:12:44.522Z,46.20
2018-09-19T15:15:13.029Z,44.58
2018-09-19T15:17:41.530Z,43.88
2018-09-19T15:20:09.740Z,44.02
2018-09-19T15:22:38.324Z,44.78
2018-09-19T15:25:06.933Z,43.87
2018-09-19T15:27:35.215Z,43.15
2018-09-19T15:30:04.118Z,45.68
2018-09-19T15:32:32.604Z,45.06
2018-09-19T15:35:00.868Z,44.68
2018-09-19T15:37:29.561Z,44.29
2018-09-19T15:39:58.208Z,44.00
2018-09-19T15:42:26.477Z,43.70
2018-09-19T15:44:54.853Z,42.63
2018-09-19T15:47:23.730Z,42.36
2018-09-19T15:49:51.995Z,42.66
2018-09-19T15:52:20.545Z,43.05
2018-09-19T15:54:49.080Z,42.94
2018-09-19T15:57:17.691Z,43.22
2018-09-19T15:59:45.836Z,42.55
2018-09-19T16:02:14.268Z,41.44
2018-09-19T16:04:42.978Z,41.10
2018-09-19T16:07:11.993Z,39.69
2018-09-19T16:09:40.260Z,39.98
2018-09-19T16:12:08.446Z,39.41
2018-09-19T16:14:36.964Z,37.93
2018-09-19T16:17:05.561Z,36.85
2018-09-19T16:19:33.813Z,36.53
2018-09-19T16:22:02.328Z,35.13
2018-09-19T16:24:30.570Z,33.87
2018-09-19T16:26:59.356Z,33.08
2018-09-19T16:29:27.900Z,32.70
2018-09-19T16:31:56.480Z,31.79
2018-09-19T16:34:24.983Z,32.73
2018-09-19T16:36:53.263Z,32.01
2018-09-19T16:39:22.488Z,31.43
2018-09-19T16:41:50.705Z,31.35
2018-09-19T16:44:19.375Z,31.06
2018-09-19T16:46:48.043Z,30.90
2018-09-19T16:49:16.560Z,30.69
2018-09-19T16:51:44.918Z,30.56
2018-09-19T16:54:13.571Z,30.22
2018-09-19T16:56:42.504Z,30.01
2018-09-19T16:59:10.754Z,30.02
2018-09-19T17:01:39.815Z,29.76
2018-09-19T17:04:08.153Z,29.64
2018-09-19T17:06:37.057Z,29.42
2018-09-19T17:09:07.482Z,29.14
2018-09-19T17:11:35.897Z,28.93
2018-09-19T17:14:04.978Z,28.77
2018-09-19T17:16:33.741Z,28.56
2018-09-19T17:19:03.002Z,28.48
2018-09-19T17:21:31.314Z,28.58
2018-09-19T17:24:00.013Z,28.37
2018-09-19T17:26:28.195Z,28.35
2018-09-19T17:28:57.047Z,28.21
2018-09-19T17:31:25.510Z,28.02
2018-09-19T17:33:53.850Z,27.93
2018-09-19T17:36:22.047Z,27.76
2018-09-19T17:38:50.348Z,27.60
2018-09-19T17:41:18.859Z,27.47
2018-09-19T17:43:47.685Z,27.31
2018-09-19T17:46:16.170Z,27.04
2018-09-19T17:48:44.420Z,26.95
2018-09-19T17:51:12.650Z,27.00
2018-09-19T17:53:40.927Z,26.94
2018-09-19T17:56:09.250Z,26.83
2018-09-19T17:58:37.569Z,26.71
2018-09-19T18:01:05.773Z,26.53
2018-09-19T18:03:34.109Z,26.31
2018-09-19T18:06:02.768Z,26.04
2018-09-19T18:08:31.066Z,25.91
2018-09-19T18:10:59.616Z,26.07
2018-09-19T18:13:29.975Z,26.11
2018-09-19T18:15:59.313Z,26.04
2018-09-19T18:18:29.589Z,25.95
2018-09-19T18:20:59.020Z,25.79
2018-09-19T18:23:28.240Z,25.78
2018-09-19T18:25:57.553Z,25.75
2018-09-19T18:28:26.188Z,25.58
2018-09-19T18:30:55.357Z,25.55
2018-09-19T18:33:24.598Z,25.45
2018-09-19T18:35:54.233Z,25.32
2018-09-19T18:38:23.620Z,25.23
2018-09-19T18:40:53.545Z,25.16
2018-09-19T18:43:22.907Z,25.15
2018-09-19T18:45:52.358Z,25.08
2018-09-19T18:48:21.875Z,25.03
2018-09-19T18:50:50.813Z,24.86
2018-09-19T18:53:20.134Z,24.74
2018-09-19T18:55:49.772Z,24.73
2018-09-19T18:58:19.742Z,24.70
2018-09-19T19:00:49.084Z,24.59
2018-09-19T19:03:18.408Z,24.51
2018-09-19T19:05:46.716Z,24.42
2018-09-19T19:08:16.424Z,24.48
2018-09-19T19:10:45.513Z,24.42
2018-09-19T19:13:14.285Z,24.31
2018-09-19T19:15:43.652Z,24.38
2018-09-19T19:18:12.601Z,24.26
2018-09-19T19:20:42.333Z,24.12
2018-09-19T19:23:10.660Z,24.07
2018-09-19T19:25:39.530Z,24.02
2018-09-19T19:28:07.779Z,23.95
2018-09-19T19:30:37.019Z,23.83
2018-09-19T19:33:05.450Z,23.74
2018-09-19T19:35:33.788Z,23.60
2018-09-19T19:38:02.489Z,23.61
2018-09-19T19:40:30.725Z,23.57
2018-09-19T19:42:59.050Z,23.46
2018-09-19T19:45:27.410Z,23.40
2018-09-19T19:47:55.684Z,23.25
2018-09-19T19:50:23.968Z,23.15
2018-09-19T19:52:52.564Z,23.13
2018-09-19T19:55:21.085Z,23.01
2018-09-19T19:57:49.740Z,22.98
2018-09-19T20:00:18.645Z,23.04
2018-09-19T20:02:47.661Z,23.02
2018-09-19T20:05:16.631Z,22.88
2018-09-19T20:07:45.253Z,22.77
2018-09-19T20:10:13.788Z,22.77
2018-09-19T20:12:42.012Z,22.81
2018-09-19T20:15:10.214Z,22.74
2018-09-19T20:17:38.663Z,22.64
2018-09-19T20:20:07.192Z,22.64
2018-09-19T20:22:35.441Z,22.51
2018-09-19T20:25:05.886Z,22.61
2018-09-19T20:27:41.073Z,22.49
2018-09-19T20:30:09.561Z,22.39
2018-09-19T20:32:37.773Z,22.35
2018-09-19T20:35:06.055Z,22.27
2018-09-19T20:37:34.843Z,22.20
2018-09-19T20:40:03.649Z,22.10
2018-09-19T20:42:31.905Z,22.02
2018-09-19T20:45:00.445Z,21.94
2018-09-19T20:47:28.918Z,21.92
2018-09-19T20:49:57.503Z,21.88
2018-09-19T20:52:25.701Z,21.88
2018-09-19T20:54:53.913Z,21.86
2018-09-19T20:57:22.535Z,21.82
2018-09-19T20:59:51.043Z,21.74
2018-09-19T21:02:19.317Z,21.78
2018-09-19T21:04:47.680Z,21.84
2018-09-19T21:07:15.948Z,21.87
2018-09-19T21:09:44.321Z,21.85
2018-09-19T21:12:12.693Z,21.81
2018-09-19T21:14:41.096Z,21.73
2018-09-19T21:17:10.184Z,21.65
2018-09-19T21:19:38.816Z,21.60
2018-09-19T21:22:08.059Z,21.49
2018-09-19T21:24:36.949Z,21.34
2018-09-19T21:27:05.966Z,21.24
2018-09-19T21:29:34.340Z,21.17
2018-09-19T21:32:03.904Z,21.11
2018-09-19T21:34:32.169Z,21.09
2018-09-19T21:37:00.860Z,21.08
2018-09-19T21:39:29.134Z,21.03
2018-09-19T21:41:57.463Z,21.03
2018-09-19T21:44:25.663Z,21.00
2018-09-19T21:46:54.621Z,20.95
2018-09-19T21:49:23.381Z,20.91
2018-09-19T21:51:51.633Z,20.86
2018-09-19T21:54:20.608Z,20.83
2018-09-19T21:56:50.505Z,20.85
2018-09-19T21:59:18.949Z,20.85
2018-09-19T22:01:51.699Z,20.78
2018-09-19T22:04:20.108Z,20.70
2018-09-19T22:06:52.229Z,20.66
2018-09-19T22:09:20.648Z,20.62
2018-09-19T22:11:49.228Z,20.63
2018-09-19T22:14:17.576Z,20.71
2018-09-19T22:16:45.938Z,20.62
2018-09-19T22:19:15.205Z,20.56
2018-09-19T22:21:43.463Z,20.58
2018-09-19T22:24:12.251Z,20.51
2018-09-19T22:26:40.762Z,20.46
2018-09-19T22:29:09.340Z,20.49
2018-09-19T22:31:37.625Z,20.48
2018-09-19T22:34:06.233Z,20.44
2018-09-19T22:36:35.021Z,20.43
2018-09-19T22:39:04.095Z,20.42
2018-09-19T22:41:32.556Z,20.32
2018-09-19T22:44:00.729Z,20.21
2018-09-19T22:46:29.512Z,20.21
2018-09-19T22:48:58.318Z,20.18
2018-09-19T22:51:26.772Z,20.16
2018-09-19T22:53:55.317Z,20.12
2018-09-19T22:56:23.571Z,20.09
2018-09-19T22:58:52.108Z,20.07
2018-09-19T23:01:20.462Z,20.13
2018-09-19T23:03:49.093Z,20.10
2018-09-19T23:06:17.545Z,20.04
2018-09-19T23:08:46.378Z,20.07
2018-09-19T23:11:14.662Z,20.05
2018-09-19T23:13:42.957Z,20.03
2018-09-19T23:19:20.746Z,20.09
2018-09-19T23:21:48.960Z,19.99
2018-09-19T23:24:17.564Z,19.88
2018-09-19T23:26:45.782Z,19.84
2018-09-19T23:29:14.455Z,19.80
2018-09-19T23:31:42.705Z,19.71
2018-09-19T23:34:11.532Z,19.69
2018-09-19T23:36:39.925Z,19.60
2018-09-19T23:39:09.595Z,19.57
2018-09-19T23:41:37.812Z,19.55
2018-09-19T23:44:06.241Z,19.52
2018-09-19T23:46:34.504Z,19.49
2018-09-19T23:49:02.957Z,19.44
2018-09-19T23:51:31.255Z,19.46
2018-09-19T23:53:59.497Z,19.50
2018-09-19T23:56:28.089Z,19.51
2018-09-19T23:58:56.337Z,19.50
